sensor_id;sensor_type;location;lat;lon;timestamp;P1;durP1;ratioP1;P2;durP2;ratioP2
39950;SDS011;25629;51.444;-2.606;2022-10-15T00:02:08;7.72;;;2.50;;
39950;SDS011;25629;51.444;-2.606;2022-10-15T00:07:00;5.15;;;1.73;;
39950;SDS011;25629;51.444;-2.606;2022-10-15T00:09:26;7.70;;;1.67;;
39950;SDS011;25629;51.444;-2.606;2022-10-15T00:11:52;4.95;;;1.70;;
39950;SDS011;25629;51.444;-2.606;2022-10-15T00:14:18;13.77;;;2.30;;
39950;SDS011;25629;51.444;-2.606;2022-10-15T00:16:44;7.00;;;1.85;;
39950;SDS011;25629;51.444;-2.606;2022-10-15T00:19:10;8.63;;;1.90;;
39950;SDS011;25629;51.444;-2.606;2022-10-15T00:21:35;5.68;;;1.75;;
39950;SDS011;25629;51.444;-2.606;2022-10-15T00:24:02;3.55;;;1.85;;
39950;SDS011;25629;51.444;-2.606;2022-10-15T00:26:28;6.95;;;2.05;;
39950;SDS011;25629;51.444;-2.606;2022-10-15T00:29:01;5.88;;;1.38;;
39950;SDS011;25629;51.444;-2.606;2022-10-15T00:31:28;2.75;;;1.20;;
39950;SDS011;25629;51.444;-2.606;2022-10-15T00:33:56;4.22;;;1.05;;
39950;SDS011;25629;51.444;-2.606;2022-10-15T00:36:24;6.07;;;1.50;;
39950;SDS011;25629;51.444;-2.606;2022-10-15T00:38:51;2.60;;;1.25;;
39950;SDS011;25629;51.444;-2.606;2022-10-15T00:41:19;6.57;;;1.55;;
39950;SDS011;25629;51.444;-2.606;2022-10-15T00:43:56;5.90;;;1.33;;
39950;SDS011;25629;51.444;-2.606;2022-10-15T00:46:30;6.10;;;0.95;;
39950;SDS011;25629;51.444;-2.606;2022-10-15T00:49:14;11.32;;;1.75;;
39950;SDS011;25629;51.444;-2.606;2022-10-15T00:51:45;3.00;;;1.33;;
39950;SDS011;25629;51.444;-2.606;2022-10-15T00:54:16;5.45;;;1.08;;
39950;SDS011;25629;51.444;-2.606;2022-10-15T00:56:44;5.00;;;1.20;;
39950;SDS011;25629;51.444;-2.606;2022-10-15T00:59:11;6.15;;;0.93;;
39950;SDS011;25629;51.444;-2.606;2022-10-15T01:01:40;4.70;;;1.00;;
39950;SDS011;25629;51.444;-2.606;2022-10-15T01:04:06;9.55;;;0.90;;
39950;SDS011;25629;51.444;-2.606;2022-10-15T01:06:32;4.43;;;0.70;;
39950;SDS011;25629;51.444;-2.606;2022-10-15T01:08:59;4.22;;;0.80;;
39950;SDS011;25629;51.444;-2.606;2022-10-15T01:31:09;5.38;;;1.55;;
39950;SDS011;25629;51.444;-2.606;2022-10-15T01:39:09;11.82;;;1.20;;
39950;SDS011;25629;51.444;-2.606;2022-10-15T01:41:46;3.53;;;0.93;;
39950;SDS011;25629;51.444;-2.606;2022-10-15T01:44:29;5.38;;;1.35;;
39950;SDS011;25629;51.444;-2.606;2022-10-15T01:47:07;7.03;;;1.80;;
39950;SDS011;25629;51.444;-2.606;2022-10-15T01:49:43;6.47;;;1.00;;
39950;SDS011;25629;51.444;-2.606;2022-10-15T01:52:14;2.85;;;0.80;;
39950;SDS011;25629;51.444;-2.606;2022-10-15T01:54:44;6.30;;;1.08;;
39950;SDS011;25629;51.444;-2.606;2022-10-15T01:57:12;3.53;;;0.88;;
39950;SDS011;25629;51.444;-2.606;2022-10-15T01:59:39;7.50;;;0.88;;
39950;SDS011;25629;51.444;-2.606;2022-10-15T02:02:06;13.25;;;1.10;;
39950;SDS011;25629;51.444;-2.606;2022-10-15T02:04:32;3.28;;;0.93;;
39950;SDS011;25629;51.444;-2.606;2022-10-15T02:12:51;4.72;;;1.00;;
39950;SDS011;25629;51.444;-2.606;2022-10-15T02:18:20;6.13;;;1.10;;
39950;SDS011;25629;51.444;-2.606;2022-10-15T02:20:52;6.40;;;1.05;;
39950;SDS011;25629;51.444;-2.606;2022-10-15T02:23:26;7.43;;;1.30;;
39950;SDS011;25629;51.444;-2.606;2022-10-15T02:26:13;1.75;;;0.80;;
39950;SDS011;25629;51.444;-2.606;2022-10-15T02:28:41;5.85;;;1.38;;
39950;SDS011;25629;51.444;-2.606;2022-10-15T02:31:10;4.80;;;1.88;;
39950;SDS011;25629;51.444;-2.606;2022-10-15T02:33:38;3.95;;;0.70;;
39950;SDS011;25629;51.444;-2.606;2022-10-15T02:38:30;1.90;;;0.80;;
39950;SDS011;25629;51.444;-2.606;2022-10-15T02:40:59;3.88;;;0.50;;
39950;SDS011;25629;51.444;-2.606;2022-10-15T02:43:26;1.73;;;0.50;;
39950;SDS011;25629;51.444;-2.606;2022-10-15T02:45:51;2.28;;;0.73;;
39950;SDS011;25629;51.444;-2.606;2022-10-15T02:48:17;10.27;;;1.98;;
39950;SDS011;25629;51.444;-2.606;2022-10-15T02:50:43;2.80;;;0.50;;
39950;SDS011;25629;51.444;-2.606;2022-10-15T02:53:09;2.00;;;0.45;;
39950;SDS011;25629;51.444;-2.606;2022-10-15T02:55:34;3.83;;;0.57;;
39950;SDS011;25629;51.444;-2.606;2022-10-15T02:58:00;3.55;;;0.95;;
39950;SDS011;25629;51.444;-2.606;2022-10-15T03:00:26;4.55;;;0.82;;
39950;SDS011;25629;51.444;-2.606;2022-10-15T03:02:52;3.80;;;0.50;;
39950;SDS011;25629;51.444;-2.606;2022-10-15T03:05:18;4.25;;;0.68;;
39950;SDS011;25629;51.444;-2.606;2022-10-15T03:07:43;4.38;;;0.57;;
39950;SDS011;25629;51.444;-2.606;2022-10-15T03:10:09;1.75;;;0.65;;
39950;SDS011;25629;51.444;-2.606;2022-10-15T03:12:35;6.35;;;1.08;;
39950;SDS011;25629;51.444;-2.606;2022-10-15T03:15:01;1.55;;;0.68;;
39950;SDS011;25629;51.444;-2.606;2022-10-15T03:17:27;4.90;;;0.95;;
39950;SDS011;25629;51.444;-2.606;2022-10-15T03:19:52;5.07;;;0.88;;
39950;SDS011;25629;51.444;-2.606;2022-10-15T03:22:18;2.20;;;0.60;;
39950;SDS011;25629;51.444;-2.606;2022-10-15T03:24:44;2.60;;;0.73;;
39950;SDS011;25629;51.444;-2.606;2022-10-15T03:27:10;5.65;;;0.73;;
39950;SDS011;25629;51.444;-2.606;2022-10-15T03:29:36;5.35;;;0.90;;
39950;SDS011;25629;51.444;-2.606;2022-10-15T03:32:01;3.65;;;0.82;;
39950;SDS011;25629;51.444;-2.606;2022-10-15T03:34:27;5.07;;;0.95;;
39950;SDS011;25629;51.444;-2.606;2022-10-15T03:36:53;5.63;;;2.17;;
39950;SDS011;25629;51.444;-2.606;2022-10-15T03:39:19;6.65;;;1.02;;
39950;SDS011;25629;51.444;-2.606;2022-10-15T03:41:44;9.32;;;1.75;;
39950;SDS011;25629;51.444;-2.606;2022-10-15T03:44:10;5.22;;;1.20;;
39950;SDS011;25629;51.444;-2.606;2022-10-15T03:46:36;6.13;;;1.27;;
39950;SDS011;25629;51.444;-2.606;2022-10-15T03:49:02;3.05;;;1.50;;
39950;SDS011;25629;51.444;-2.606;2022-10-15T03:51:27;6.57;;;1.35;;
39950;SDS011;25629;51.444;-2.606;2022-10-15T03:53:53;2.85;;;1.23;;
39950;SDS011;25629;51.444;-2.606;2022-10-15T03:56:19;2.60;;;1.38;;
39950;SDS011;25629;51.444;-2.606;2022-10-15T03:58:45;5.57;;;1.20;;
39950;SDS011;25629;51.444;-2.606;2022-10-15T04:01:11;3.22;;;1.00;;
39950;SDS011;25629;51.444;-2.606;2022-10-15T04:03:39;2.78;;;1.45;;
39950;SDS011;25629;51.444;-2.606;2022-10-15T04:06:05;3.33;;;0.82;;
39950;SDS011;25629;51.444;-2.606;2022-10-15T04:08:31;5.75;;;1.00;;
39950;SDS011;25629;51.444;-2.606;2022-10-15T04:10:57;1.88;;;0.88;;
39950;SDS011;25629;51.444;-2.606;2022-10-15T04:13:23;2.53;;;0.80;;
39950;SDS011;25629;51.444;-2.606;2022-10-15T04:15:50;2.75;;;0.95;;
39950;SDS011;25629;51.444;-2.606;2022-10-15T04:18:16;1.23;;;0.68;;
39950;SDS011;25629;51.444;-2.606;2022-10-15T04:20:44;4.45;;;1.20;;
39950;SDS011;25629;51.444;-2.606;2022-10-15T04:23:10;3.35;;;0.60;;
39950;SDS011;25629;51.444;-2.606;2022-10-15T04:25:36;1.52;;;0.75;;
39950;SDS011;25629;51.444;-2.606;2022-10-15T04:28:02;2.38;;;0.70;;
39950;SDS011;25629;51.444;-2.606;2022-10-15T04:30:28;3.75;;;0.90;;
39950;SDS011;25629;51.444;-2.606;2022-10-15T04:32:53;2.38;;;0.98;;
39950;SDS011;25629;51.444;-2.606;2022-10-15T04:35:19;2.05;;;0.80;;
39950;SDS011;25629;51.444;-2.606;2022-10-15T04:37:45;4.72;;;1.10;;
39950;SDS011;25629;51.444;-2.606;2022-10-15T04:40:12;2.60;;;0.90;;
39950;SDS011;25629;51.444;-2.606;2022-10-15T04:42:38;3.13;;;1.20;;
39950;SDS011;25629;51.444;-2.606;2022-10-15T04:45:04;1.23;;;0.80;;
39950;SDS011;25629;51.444;-2.606;2022-10-15T04:47:30;2.58;;;1.00;;
39950;SDS011;25629;51.444;-2.606;2022-10-15T04:49:56;4.30;;;1.08;;
39950;SDS011;25629;51.444;-2.606;2022-10-15T04:52:22;2.53;;;0.82;;
39950;SDS011;25629;51.444;-2.606;2022-10-15T04:54:48;1.95;;;0.70;;
39950;SDS011;25629;51.444;-2.606;2022-10-15T04:59:40;1.92;;;1.00;;
39950;SDS011;25629;51.444;-2.606;2022-10-15T05:02:07;3.90;;;0.65;;
39950;SDS011;25629;51.444;-2.606;2022-10-15T05:04:33;1.90;;;0.50;;
39950;SDS011;25629;51.444;-2.606;2022-10-15T05:06:59;0.93;;;0.40;;
39950;SDS011;25629;51.444;-2.606;2022-10-15T05:09:25;0.73;;;0.40;;
39950;SDS011;25629;51.444;-2.606;2022-10-15T05:11:50;2.58;;;0.50;;
39950;SDS011;25629;51.444;-2.606;2022-10-15T05:14:16;2.55;;;0.60;;
39950;SDS011;25629;51.444;-2.606;2022-10-15T05:16:42;0.57;;;0.40;;
39950;SDS011;25629;51.444;-2.606;2022-10-15T05:19:09;1.00;;;0.40;;
39950;SDS011;25629;51.444;-2.606;2022-10-15T05:21:35;3.28;;;0.60;;
39950;SDS011;25629;51.444;-2.606;2022-10-15T05:24:01;1.20;;;0.20;;
39950;SDS011;25629;51.444;-2.606;2022-10-15T05:26:29;1.17;;;0.75;;
39950;SDS011;25629;51.444;-2.606;2022-10-15T05:28:57;0.98;;;0.20;;
39950;SDS011;25629;51.444;-2.606;2022-10-15T05:31:24;1.08;;;0.25;;
39950;SDS011;25629;51.444;-2.606;2022-10-15T05:33:53;1.95;;;0.20;;
39950;SDS011;25629;51.444;-2.606;2022-10-15T05:41:13;4.97;;;0.45;;
39950;SDS011;25629;51.444;-2.606;2022-10-15T05:43:39;0.20;;;0.10;;
39950;SDS011;25629;51.444;-2.606;2022-10-15T05:46:04;3.30;;;0.22;;
39950;SDS011;25629;51.444;-2.606;2022-10-15T05:48:30;2.47;;;0.38;;
39950;SDS011;25629;51.444;-2.606;2022-10-15T05:51:03;1.02;;;0.20;;
39950;SDS011;25629;51.444;-2.606;2022-10-15T05:53:31;1.17;;;0.20;;
39950;SDS011;25629;51.444;-2.606;2022-10-15T05:55:57;0.30;;;0.20;;
39950;SDS011;25629;51.444;-2.606;2022-10-15T05:58:26;0.10;;;0.10;;
39950;SDS011;25629;51.444;-2.606;2022-10-15T06:00:54;1.38;;;0.10;;
39950;SDS011;25629;51.444;-2.606;2022-10-15T06:03:21;1.02;;;0.20;;
39950;SDS011;25629;51.444;-2.606;2022-10-15T06:05:47;1.33;;;0.05;;
39950;SDS011;25629;51.444;-2.606;2022-10-15T06:08:12;0.80;;;0.05;;
39950;SDS011;25629;51.444;-2.606;2022-10-15T06:10:38;0.47;;;0.10;;
39950;SDS011;25629;51.444;-2.606;2022-10-15T06:13:04;0.45;;;0.10;;
39950;SDS011;25629;51.444;-2.606;2022-10-15T06:15:30;2.38;;;0.20;;
39950;SDS011;25629;51.444;-2.606;2022-10-15T06:17:57;2.95;;;0.95;;
39950;SDS011;25629;51.444;-2.606;2022-10-15T06:20:23;0.38;;;0.10;;
39950;SDS011;25629;51.444;-2.606;2022-10-15T06:22:48;1.45;;;0.10;;
39950;SDS011;25629;51.444;-2.606;2022-10-15T06:27:40;0.57;;;0.13;;
39950;SDS011;25629;51.444;-2.606;2022-10-15T06:30:06;1.75;;;0.20;;
39950;SDS011;25629;51.444;-2.606;2022-10-15T06:32:33;0.40;;;0.10;;
39950;SDS011;25629;51.444;-2.606;2022-10-15T06:34:59;1.27;;;0.10;;
39950;SDS011;25629;51.444;-2.606;2022-10-15T06:37:24;1.02;;;0.20;;
39950;SDS011;25629;51.444;-2.606;2022-10-15T06:39:50;1.75;;;0.10;;
39950;SDS011;25629;51.444;-2.606;2022-10-15T06:42:16;0.00;;;0.00;;
39950;SDS011;25629;51.444;-2.606;2022-10-15T06:44:42;1.30;;;0.05;;
39950;SDS011;25629;51.444;-2.606;2022-10-15T06:47:07;0.32;;;0.10;;
39950;SDS011;25629;51.444;-2.606;2022-10-15T06:49:33;2.72;;;0.63;;
39950;SDS011;25629;51.444;-2.606;2022-10-15T06:51:59;0.55;;;0.10;;
39950;SDS011;25629;51.444;-2.606;2022-10-15T06:54:25;0.32;;;0.10;;
39950;SDS011;25629;51.444;-2.606;2022-10-15T06:56:50;0.13;;;0.03;;
39950;SDS011;25629;51.444;-2.606;2022-10-15T06:59:16;0.10;;;0.00;;
39950;SDS011;25629;51.444;-2.606;2022-10-15T07:01:42;0.60;;;0.10;;
39950;SDS011;25629;51.444;-2.606;2022-10-15T07:04:08;1.95;;;0.10;;
39950;SDS011;25629;51.444;-2.606;2022-10-15T07:06:34;0.93;;;0.10;;
39950;SDS011;25629;51.444;-2.606;2022-10-15T07:11:26;1.70;;;0.07;;
39950;SDS011;25629;51.444;-2.606;2022-10-15T07:13:52;0.85;;;0.10;;
39950;SDS011;25629;51.444;-2.606;2022-10-15T07:18:46;1.23;;;0.20;;
39950;SDS011;25629;51.444;-2.606;2022-10-15T07:21:12;0.65;;;0.10;;
39950;SDS011;25629;51.444;-2.606;2022-10-15T07:23:38;1.58;;;0.10;;
39950;SDS011;25629;51.444;-2.606;2022-10-15T07:26:04;3.97;;;0.32;;
39950;SDS011;25629;51.444;-2.606;2022-10-15T07:28:30;2.22;;;0.20;;
39950;SDS011;25629;51.444;-2.606;2022-10-15T07:31:00;0.80;;;0.30;;
39950;SDS011;25629;51.444;-2.606;2022-10-15T07:33:27;1.45;;;0.10;;
39950;SDS011;25629;51.444;-2.606;2022-10-15T07:35:53;5.88;;;0.28;;
39950;SDS011;25629;51.444;-2.606;2022-10-15T07:38:18;3.25;;;0.20;;
39950;SDS011;25629;51.444;-2.606;2022-10-15T07:40:44;0.73;;;0.20;;
39950;SDS011;25629;51.444;-2.606;2022-10-15T07:43:10;0.90;;;0.08;;
39950;SDS011;25629;51.444;-2.606;2022-10-15T07:45:36;2.42;;;0.30;;
39950;SDS011;25629;51.444;-2.606;2022-10-15T07:48:02;3.50;;;0.10;;
39950;SDS011;25629;51.444;-2.606;2022-10-15T07:50:28;2.67;;;0.30;;
39950;SDS011;25629;51.444;-2.606;2022-10-15T07:52:53;1.58;;;0.52;;
39950;SDS011;25629;51.444;-2.606;2022-10-15T07:55:19;0.52;;;0.30;;
39950;SDS011;25629;51.444;-2.606;2022-10-15T07:57:45;1.55;;;0.10;;
39950;SDS011;25629;51.444;-2.606;2022-10-15T08:00:11;1.35;;;0.40;;
39950;SDS011;25629;51.444;-2.606;2022-10-15T08:02:37;0.60;;;0.10;;
39950;SDS011;25629;51.444;-2.606;2022-10-15T08:05:03;1.38;;;0.10;;
39950;SDS011;25629;51.444;-2.606;2022-10-15T08:07:29;0.30;;;0.10;;
39950;SDS011;25629;51.444;-2.606;2022-10-15T08:09:54;1.08;;;0.73;;
39950;SDS011;25629;51.444;-2.606;2022-10-15T08:12:20;1.08;;;0.10;;
39950;SDS011;25629;51.444;-2.606;2022-10-15T08:14:46;0.80;;;0.25;;
39950;SDS011;25629;51.444;-2.606;2022-10-15T08:17:12;2.67;;;0.10;;
39950;SDS011;25629;51.444;-2.606;2022-10-15T08:19:37;1.05;;;0.20;;
39950;SDS011;25629;51.444;-2.606;2022-10-15T08:22:03;0.70;;;0.22;;
39950;SDS011;25629;51.444;-2.606;2022-10-15T08:26:58;1.67;;;0.30;;
39950;SDS011;25629;51.444;-2.606;2022-10-15T08:29:23;6.25;;;0.60;;
39950;SDS011;25629;51.444;-2.606;2022-10-15T08:31:49;2.85;;;0.57;;
39950;SDS011;25629;51.444;-2.606;2022-10-15T08:34:15;1.85;;;0.20;;
39950;SDS011;25629;51.444;-2.606;2022-10-15T08:36:41;0.88;;;0.10;;
39950;SDS011;25629;51.444;-2.606;2022-10-15T08:41:38;1.40;;;0.20;;
39950;SDS011;25629;51.444;-2.606;2022-10-15T08:50:05;0.60;;;0.10;;
39950;SDS011;25629;51.444;-2.606;2022-10-15T08:52:43;3.20;;;0.17;;
39950;SDS011;25629;51.444;-2.606;2022-10-15T08:55:13;2.17;;;0.52;;
39950;SDS011;25629;51.444;-2.606;2022-10-15T08:57:45;2.67;;;0.63;;
39950;SDS011;25629;51.444;-2.606;2022-10-15T09:00:22;2.75;;;0.28;;
39950;SDS011;25629;51.444;-2.606;2022-10-15T09:11:39;4.75;;;0.73;;
39950;SDS011;25629;51.444;-2.606;2022-10-15T09:14:24;3.10;;;0.30;;
39950;SDS011;25629;51.444;-2.606;2022-10-15T09:17:04;3.17;;;0.28;;
39950;SDS011;25629;51.444;-2.606;2022-10-15T09:19:38;1.50;;;0.25;;
39950;SDS011;25629;51.444;-2.606;2022-10-15T09:22:08;2.58;;;0.20;;
39950;SDS011;25629;51.444;-2.606;2022-10-15T09:24:38;4.38;;;0.57;;
39950;SDS011;25629;51.444;-2.606;2022-10-15T09:27:08;6.03;;;0.43;;
39950;SDS011;25629;51.444;-2.606;2022-10-15T09:29:43;3.10;;;0.60;;
39950;SDS011;25629;51.444;-2.606;2022-10-15T09:43:22;6.15;;;0.43;;
39950;SDS011;25629;51.444;-2.606;2022-10-15T09:45:54;4.95;;;0.73;;
39950;SDS011;25629;51.444;-2.606;2022-10-15T09:54:10;5.50;;;0.55;;
39950;SDS011;25629;51.444;-2.606;2022-10-15T09:56:47;6.72;;;0.82;;
39950;SDS011;25629;51.444;-2.606;2022-10-15T09:59:20;9.60;;;0.82;;
39950;SDS011;25629;51.444;-2.606;2022-10-15T10:01:57;4.30;;;1.05;;
39950;SDS011;25629;51.444;-2.606;2022-10-15T10:04:29;9.38;;;1.75;;
39950;SDS011;25629;51.444;-2.606;2022-10-15T10:06:57;14.13;;;1.25;;
39950;SDS011;25629;51.444;-2.606;2022-10-15T10:09:29;11.10;;;1.08;;
39950;SDS011;25629;51.444;-2.606;2022-10-15T10:11:58;4.82;;;0.50;;
39950;SDS011;25629;51.444;-2.606;2022-10-15T10:14:28;2.42;;;0.90;;
39950;SDS011;25629;51.444;-2.606;2022-10-15T10:19:37;3.65;;;0.50;;
39950;SDS011;25629;51.444;-2.606;2022-10-15T10:22:16;6.82;;;0.73;;
39950;SDS011;25629;51.444;-2.606;2022-10-15T10:24:44;5.00;;;0.65;;
39950;SDS011;25629;51.444;-2.606;2022-10-15T10:27:16;2.92;;;0.70;;
39950;SDS011;25629;51.444;-2.606;2022-10-15T10:29:50;5.15;;;0.68;;
39950;SDS011;25629;51.444;-2.606;2022-10-15T10:32:21;4.38;;;1.08;;
39950;SDS011;25629;51.444;-2.606;2022-10-15T10:34:50;3.80;;;0.40;;
39950;SDS011;25629;51.444;-2.606;2022-10-15T10:37:17;3.40;;;0.60;;
39950;SDS011;25629;51.444;-2.606;2022-10-15T10:39:43;15.25;;;1.65;;
39950;SDS011;25629;51.444;-2.606;2022-10-15T10:44:42;5.35;;;0.90;;
39950;SDS011;25629;51.444;-2.606;2022-10-15T10:47:24;3.40;;;0.80;;
39950;SDS011;25629;51.444;-2.606;2022-10-15T10:49:51;5.28;;;0.65;;
39950;SDS011;25629;51.444;-2.606;2022-10-15T10:52:27;7.80;;;0.70;;
39950;SDS011;25629;51.444;-2.606;2022-10-15T11:09:13;5.70;;;0.75;;
39950;SDS011;25629;51.444;-2.606;2022-10-15T11:11:56;11.13;;;1.50;;
39950;SDS011;25629;51.444;-2.606;2022-10-15T11:14:50;3.78;;;0.40;;
39950;SDS011;25629;51.444;-2.606;2022-10-15T11:46:19;7.05;;;1.42;;
39950;SDS011;25629;51.444;-2.606;2022-10-15T11:55:01;15.00;;;1.95;;
39950;SDS011;25629;51.444;-2.606;2022-10-15T11:57:49;4.03;;;0.60;;
39950;SDS011;25629;51.444;-2.606;2022-10-15T12:00:31;4.82;;;0.85;;
39950;SDS011;25629;51.444;-2.606;2022-10-15T12:06:25;5.72;;;0.65;;
39950;SDS011;25629;51.444;-2.606;2022-10-15T12:08:33;4.35;;;0.60;;
39950;SDS011;25629;51.444;-2.606;2022-10-15T12:11:05;7.35;;;0.73;;
39950;SDS011;25629;51.444;-2.606;2022-10-15T12:19:36;12.15;;;1.25;;
39950;SDS011;25629;51.444;-2.606;2022-10-15T12:29:43;6.80;;;0.65;;
39950;SDS011;25629;51.444;-2.606;2022-10-15T12:32:23;4.25;;;0.60;;
39950;SDS011;25629;51.444;-2.606;2022-10-15T12:34:55;5.55;;;0.70;;
39950;SDS011;25629;51.444;-2.606;2022-10-15T12:37:24;10.18;;;1.23;;
39950;SDS011;25629;51.444;-2.606;2022-10-15T12:39:54;9.98;;;1.20;;
39950;SDS011;25629;51.444;-2.606;2022-10-15T12:42:26;6.18;;;0.70;;
39950;SDS011;25629;51.444;-2.606;2022-10-15T12:45:00;8.88;;;0.82;;
39950;SDS011;25629;51.444;-2.606;2022-10-15T12:50:20;5.75;;;1.08;;
39950;SDS011;25629;51.444;-2.606;2022-10-15T12:53:00;7.25;;;1.48;;
39950;SDS011;25629;51.444;-2.606;2022-10-15T12:55:34;6.75;;;1.00;;
39950;SDS011;25629;51.444;-2.606;2022-10-15T13:00:50;7.85;;;0.85;;
39950;SDS011;25629;51.444;-2.606;2022-10-15T13:05:48;4.63;;;0.93;;
39950;SDS011;25629;51.444;-2.606;2022-10-15T13:08:15;7.68;;;0.85;;
39950;SDS011;25629;51.444;-2.606;2022-10-15T13:10:54;5.50;;;1.17;;
39950;SDS011;25629;51.444;-2.606;2022-10-15T13:13:24;7.05;;;1.00;;
39950;SDS011;25629;51.444;-2.606;2022-10-15T13:16:05;6.95;;;0.93;;
39950;SDS011;25629;51.444;-2.606;2022-10-15T13:18:33;5.00;;;0.80;;
39950;SDS011;25629;51.444;-2.606;2022-10-15T13:20:59;13.07;;;1.02;;
39950;SDS011;25629;51.444;-2.606;2022-10-15T13:26:09;6.82;;;0.77;;
39950;SDS011;25629;51.444;-2.606;2022-10-15T13:28:37;13.82;;;1.40;;
39950;SDS011;25629;51.444;-2.606;2022-10-15T13:31:06;8.40;;;1.25;;
39950;SDS011;25629;51.444;-2.606;2022-10-15T13:33:39;5.15;;;1.40;;
39950;SDS011;25629;51.444;-2.606;2022-10-15T13:36:07;9.57;;;1.25;;
39950;SDS011;25629;51.444;-2.606;2022-10-15T13:38:40;9.45;;;1.13;;
39950;SDS011;25629;51.444;-2.606;2022-10-15T13:43:31;11.93;;;1.10;;
39950;SDS011;25629;51.444;-2.606;2022-10-15T13:48:25;10.23;;;1.35;;
39950;SDS011;25629;51.444;-2.606;2022-10-15T13:50:59;5.50;;;0.80;;
39950;SDS011;25629;51.444;-2.606;2022-10-15T13:55:59;9.15;;;1.30;;
39950;SDS011;25629;51.444;-2.606;2022-10-15T13:58:29;5.82;;;0.70;;
39950;SDS011;25629;51.444;-2.606;2022-10-15T14:00:59;5.40;;;1.23;;
39950;SDS011;25629;51.444;-2.606;2022-10-15T14:03:31;5.45;;;0.88;;
39950;SDS011;25629;51.444;-2.606;2022-10-15T14:08:47;7.07;;;1.13;;
39950;SDS011;25629;51.444;-2.606;2022-10-15T14:11:14;9.57;;;1.63;;
39950;SDS011;25629;51.444;-2.606;2022-10-15T14:13:51;6.80;;;1.17;;
39950;SDS011;25629;51.444;-2.606;2022-10-15T14:16:19;4.68;;;0.80;;
39950;SDS011;25629;51.444;-2.606;2022-10-15T14:18:54;9.18;;;1.05;;
39950;SDS011;25629;51.444;-2.606;2022-10-15T14:21:32;7.03;;;0.97;;
39950;SDS011;25629;51.444;-2.606;2022-10-15T14:24:06;2.78;;;0.60;;
39950;SDS011;25629;51.444;-2.606;2022-10-15T14:26:44;4.75;;;0.50;;
39950;SDS011;25629;51.444;-2.606;2022-10-15T14:29:15;7.18;;;1.05;;
39950;SDS011;25629;51.444;-2.606;2022-10-15T14:31:53;5.88;;;0.77;;
39950;SDS011;25629;51.444;-2.606;2022-10-15T14:36:50;7.53;;;1.20;;
39950;SDS011;25629;51.444;-2.606;2022-10-15T14:39:33;6.97;;;0.60;;
39950;SDS011;25629;51.444;-2.606;2022-10-15T14:42:02;3.97;;;0.50;;
39950;SDS011;25629;51.444;-2.606;2022-10-15T14:44:51;4.70;;;0.85;;
39950;SDS011;25629;51.444;-2.606;2022-10-15T14:47:23;5.73;;;0.47;;
39950;SDS011;25629;51.444;-2.606;2022-10-15T14:49:56;8.93;;;1.05;;
39950;SDS011;25629;51.444;-2.606;2022-10-15T14:52:25;3.60;;;0.73;;
39950;SDS011;25629;51.444;-2.606;2022-10-15T14:54:59;7.25;;;0.65;;
39950;SDS011;25629;51.444;-2.606;2022-10-15T14:57:34;6.55;;;1.02;;
39950;SDS011;25629;51.444;-2.606;2022-10-15T15:00:19;6.70;;;0.90;;
39950;SDS011;25629;51.444;-2.606;2022-10-15T15:02:56;8.02;;;0.98;;
39950;SDS011;25629;51.444;-2.606;2022-10-15T15:05:25;4.03;;;0.68;;
39950;SDS011;25629;51.444;-2.606;2022-10-15T15:07:51;4.78;;;0.60;;
39950;SDS011;25629;51.444;-2.606;2022-10-15T15:10:18;9.35;;;2.63;;
39950;SDS011;25629;51.444;-2.606;2022-10-15T15:12:46;7.57;;;1.98;;
39950;SDS011;25629;51.444;-2.606;2022-10-15T15:15:16;11.57;;;1.35;;
39950;SDS011;25629;51.444;-2.606;2022-10-15T15:17:43;7.32;;;1.88;;
39950;SDS011;25629;51.444;-2.606;2022-10-15T15:20:10;8.40;;;1.05;;
39950;SDS011;25629;51.444;-2.606;2022-10-15T15:22:36;5.95;;;0.98;;
39950;SDS011;25629;51.444;-2.606;2022-10-15T15:25:05;5.82;;;1.27;;
39950;SDS011;25629;51.444;-2.606;2022-10-15T15:27:38;8.57;;;1.48;;
39950;SDS011;25629;51.444;-2.606;2022-10-15T15:32:31;7.97;;;1.47;;
39950;SDS011;25629;51.444;-2.606;2022-10-15T15:34:57;8.57;;;1.23;;
39950;SDS011;25629;51.444;-2.606;2022-10-15T15:37:23;6.85;;;1.73;;
39950;SDS011;25629;51.444;-2.606;2022-10-15T15:39:50;3.30;;;0.75;;
39950;SDS011;25629;51.444;-2.606;2022-10-15T15:42:18;6.80;;;0.82;;
39950;SDS011;25629;51.444;-2.606;2022-10-15T15:44:46;8.23;;;1.20;;
39950;SDS011;25629;51.444;-2.606;2022-10-15T15:49:38;7.85;;;0.68;;
39950;SDS011;25629;51.444;-2.606;2022-10-15T15:52:10;8.15;;;0.95;;
39950;SDS011;25629;51.444;-2.606;2022-10-15T15:54:42;8.68;;;0.90;;
39950;SDS011;25629;51.444;-2.606;2022-10-15T15:57:10;9.32;;;2.33;;
39950;SDS011;25629;51.444;-2.606;2022-10-15T15:59:36;8.07;;;1.10;;
39950;SDS011;25629;51.444;-2.606;2022-10-15T16:02:02;7.22;;;1.23;;
39950;SDS011;25629;51.444;-2.606;2022-10-15T16:06:54;9.90;;;1.08;;
39950;SDS011;25629;51.444;-2.606;2022-10-15T16:11:47;9.38;;;1.48;;
39950;SDS011;25629;51.444;-2.606;2022-10-15T16:14:14;7.57;;;0.90;;
39950;SDS011;25629;51.444;-2.606;2022-10-15T16:16:40;6.53;;;1.15;;
39950;SDS011;25629;51.444;-2.606;2022-10-15T16:19:06;7.78;;;1.02;;
39950;SDS011;25629;51.444;-2.606;2022-10-15T16:23:58;8.13;;;1.55;;
39950;SDS011;25629;51.444;-2.606;2022-10-15T16:26:24;4.63;;;1.00;;
39950;SDS011;25629;51.444;-2.606;2022-10-15T16:33:49;6.70;;;1.05;;
39950;SDS011;25629;51.444;-2.606;2022-10-15T16:36:15;6.85;;;1.40;;
39950;SDS011;25629;51.444;-2.606;2022-10-15T16:38:42;7.18;;;1.33;;
39950;SDS011;25629;51.444;-2.606;2022-10-15T16:41:09;5.15;;;1.00;;
39950;SDS011;25629;51.444;-2.606;2022-10-15T16:43:36;5.78;;;0.82;;
39950;SDS011;25629;51.444;-2.606;2022-10-15T16:46:02;9.15;;;1.50;;
39950;SDS011;25629;51.444;-2.606;2022-10-15T16:48:29;11.05;;;1.02;;
39950;SDS011;25629;51.444;-2.606;2022-10-15T16:51:00;11.02;;;1.23;;
39950;SDS011;25629;51.444;-2.606;2022-10-15T16:53:27;5.90;;;0.73;;
39950;SDS011;25629;51.444;-2.606;2022-10-15T16:56:04;5.85;;;0.60;;
39950;SDS011;25629;51.444;-2.606;2022-10-15T16:58:31;5.13;;;1.00;;
39950;SDS011;25629;51.444;-2.606;2022-10-15T17:03:24;12.10;;;1.38;;
39950;SDS011;25629;51.444;-2.606;2022-10-15T17:05:54;7.13;;;1.25;;
39950;SDS011;25629;51.444;-2.606;2022-10-15T17:08:21;8.40;;;1.02;;
39950;SDS011;25629;51.444;-2.606;2022-10-15T17:10:48;10.73;;;1.58;;
39950;SDS011;25629;51.444;-2.606;2022-10-15T17:13:13;7.82;;;1.17;;
39950;SDS011;25629;51.444;-2.606;2022-10-15T17:15:40;6.85;;;0.82;;
39950;SDS011;25629;51.444;-2.606;2022-10-15T17:18:06;14.15;;;1.90;;
39950;SDS011;25629;51.444;-2.606;2022-10-15T17:20:32;9.23;;;1.13;;
39950;SDS011;25629;51.444;-2.606;2022-10-15T17:22:58;10.60;;;1.65;;
39950;SDS011;25629;51.444;-2.606;2022-10-15T17:27:50;7.88;;;1.33;;
39950;SDS011;25629;51.444;-2.606;2022-10-15T17:30:21;10.60;;;1.40;;
39950;SDS011;25629;51.444;-2.606;2022-10-15T17:32:47;11.73;;;3.03;;
39950;SDS011;25629;51.444;-2.606;2022-10-15T17:37:39;8.93;;;1.90;;
39950;SDS011;25629;51.444;-2.606;2022-10-15T17:40:05;10.15;;;1.40;;
39950;SDS011;25629;51.444;-2.606;2022-10-15T17:42:31;9.75;;;2.85;;
39950;SDS011;25629;51.444;-2.606;2022-10-15T17:44:57;12.45;;;1.42;;
39950;SDS011;25629;51.444;-2.606;2022-10-15T17:47:22;9.00;;;1.38;;
39950;SDS011;25629;51.444;-2.606;2022-10-15T17:49:48;17.92;;;2.65;;
39950;SDS011;25629;51.444;-2.606;2022-10-15T17:52:14;7.97;;;1.70;;
39950;SDS011;25629;51.444;-2.606;2022-10-15T17:54:40;11.82;;;2.50;;
39950;SDS011;25629;51.444;-2.606;2022-10-15T17:57:05;5.57;;;1.25;;
39950;SDS011;25629;51.444;-2.606;2022-10-15T17:59:31;8.05;;;1.63;;
39950;SDS011;25629;51.444;-2.606;2022-10-15T18:01:57;12.05;;;2.00;;
39950;SDS011;25629;51.444;-2.606;2022-10-15T18:04:24;8.98;;;1.35;;
39950;SDS011;25629;51.444;-2.606;2022-10-15T18:06:50;7.13;;;1.33;;
39950;SDS011;25629;51.444;-2.606;2022-10-15T18:09:16;5.43;;;1.50;;
39950;SDS011;25629;51.444;-2.606;2022-10-15T18:11:42;8.77;;;1.67;;